createdAt,value
2022-12-16T00:02:16.254Z,95481.44
2022-12-16T00:04:47.414Z,95484.38
2022-12-16T00:07:16.716Z,95479.34
2022-12-16T00:09:46.277Z,95479.09
2022-12-16T00:12:15.421Z,95477.75
2022-12-16T00:14:44.314Z,95467.97
2022-12-16T00:17:13.903Z,95468.47
2022-12-16T00:19:44.757Z,95479.03
2022-12-16T00:22:13.864Z,95484.91
2022-12-16T00:24:47.868Z,95485.44
2022-12-16T00:27:19.934Z,95490.69
2022-12-16T00:29:51.778Z,95489.09
2022-12-16T00:32:21.504Z,95489.94
2022-12-16T00:35:01.460Z,95496.78
2022-12-16T00:37:30.707Z,95504.50
2022-12-16T00:40:00.122Z,95500.28
2022-12-16T00:42:32.230Z,95501.31
2022-12-16T00:45:01.324Z,95504.47
2022-12-16T00:47:31.240Z,95507.94
2022-12-16T00:50:22.146Z,95502.38
2022-12-16T00:52:51.553Z,95503.66
2022-12-16T00:55:23.857Z,95506.88
2022-12-16T00:57:53.162Z,95505.03
2022-12-16T01:00:24.430Z,95519.28
2022-12-16T01:02:54.000Z,95519.81
2022-12-16T01:05:27.991Z,95529.31
2022-12-16T01:07:57.190Z,95526.94
2022-12-16T01:10:27.061Z,95521.38
2022-12-16T01:13:04.907Z,95532.50
2022-12-16T01:15:34.881Z,95523.78
2022-12-16T01:18:03.919Z,95526.69
2022-12-16T01:20:35.778Z,95526.16
2022-12-16T01:23:04.671Z,95535.91
2022-12-16T01:25:33.826Z,95542.00
2022-12-16T01:28:02.973Z,95536.50
2022-12-16T01:30:32.471Z,95545.47
2022-12-16T01:33:05.254Z,95542.56
2022-12-16T01:35:55.955Z,95541.75
2022-12-16T01:38:25.466Z,95546.00
2022-12-16T01:40:55.187Z,95544.16
2022-12-16T01:43:26.831Z,95548.88
2022-12-16T01:46:00.904Z,95556.03
2022-12-16T01:48:37.184Z,95556.84
2022-12-16T01:51:11.416Z,95544.41
2022-12-16T01:53:42.484Z,95545.47
2022-12-16T01:56:12.388Z,95544.41
2022-12-16T01:58:44.861Z,95552.84
2022-12-16T02:01:14.389Z,95546.78
2022-12-16T02:03:44.284Z,95547.81
2022-12-16T02:06:15.017Z,95554.16
2022-12-16T02:08:44.011Z,95556.28
2022-12-16T02:11:34.492Z,95563.13
2022-12-16T02:14:22.657Z,95566.06
2022-12-16T02:16:56.685Z,95564.47
2022-12-16T02:19:56.766Z,95563.69
2022-12-16T02:22:35.671Z,95561.28
2022-12-16T02:25:39.634Z,95564.72
2022-12-16T02:28:12.763Z,95575.56
2022-12-16T02:31:04.104Z,95577.41
2022-12-16T02:33:47.299Z,95585.31
2022-12-16T02:36:24.450Z,95586.38
2022-12-16T02:38:58.391Z,95578.47
2022-12-16T02:41:36.153Z,95572.69
2022-12-16T02:44:06.882Z,95574.78
2022-12-16T02:46:43.469Z,95580.06
2022-12-16T02:49:46.257Z,95585.06
2022-12-16T02:52:15.922Z,95598.00
2022-12-16T02:54:45.910Z,95593.25
2022-12-16T02:57:24.910Z,95593.78
2022-12-16T03:00:03.735Z,95597.22
2022-12-16T03:02:42.222Z,95604.88
2022-12-16T03:05:14.503Z,95607.47
2022-12-16T03:07:45.257Z,95601.16
2022-12-16T03:10:18.194Z,95599.06
2022-12-16T03:12:52.461Z,95601.94
2022-12-16T03:15:26.678Z,95595.63
2022-12-16T03:17:57.823Z,95600.41
2022-12-16T03:20:32.309Z,95602.50
2022-12-16T03:23:05.232Z,95615.44
2022-12-16T03:25:41.705Z,95616.50
2022-12-16T03:28:19.400Z,95616.50
2022-12-16T03:30:53.458Z,95613.84
2022-12-16T03:33:29.921Z,95610.44
2022-12-16T03:36:01.746Z,95619.13
2022-12-16T03:38:32.886Z,95611.19
2022-12-16T03:41:02.600Z,95624.16
2022-12-16T03:43:32.258Z,95625.44
2022-12-16T03:46:04.730Z,95628.59
2022-12-16T03:48:56.203Z,95629.94
2022-12-16T03:51:28.576Z,95627.03
2022-12-16T03:53:57.674Z,95621.22
2022-12-16T03:56:26.875Z,95624.41
2022-12-16T03:58:55.968Z,95621.22
2022-12-16T04:01:55.327Z,95626.78
2022-12-16T04:04:31.743Z,95633.13
2022-12-16T04:07:18.425Z,95631.53
2022-12-16T04:09:47.751Z,95634.97
2022-12-16T04:12:44.094Z,95636.56
2022-12-16T04:15:32.844Z,95641.03
2022-12-16T04:18:19.621Z,95642.88
2022-12-16T04:21:11.695Z,95642.88
2022-12-16T04:24:05.349Z,95645.78
2022-12-16T04:26:56.356Z,95649.72
2022-12-16T04:29:25.582Z,95664.25
2022-12-16T04:32:00.918Z,95657.94
2022-12-16T04:34:35.237Z,95661.38
2022-12-16T04:37:23.687Z,95662.97
2022-12-16T04:40:10.296Z,95661.38
2022-12-16T04:42:57.825Z,95663.47
2022-12-16T04:45:46.584Z,95666.09
2022-12-16T04:48:33.091Z,95676.94
2022-12-16T04:51:19.375Z,95678.00
2022-12-16T04:54:07.428Z,95682.47
2022-12-16T04:56:53.728Z,95694.06
2022-12-16T04:59:40.026Z,95695.69
2022-12-16T05:02:27.055Z,95705.72
2022-12-16T05:05:13.753Z,95691.22
2022-12-16T05:08:00.464Z,95686.97
2022-12-16T05:10:51.777Z,95694.34
2022-12-16T05:13:52.930Z,95705.69
2022-12-16T05:16:39.432Z,95711.00
2022-12-16T05:19:31.593Z,95706.25
2022-12-16T05:22:18.175Z,95713.94
2022-12-16T05:25:04.373Z,95722.91
2022-12-16T05:27:52.518Z,95725.28
2022-12-16T05:30:38.714Z,95726.34
2022-12-16T05:33:28.292Z,95737.16
2022-12-16T05:36:25.933Z,95743.47
2022-12-16T05:39:15.332Z,95745.88
2022-12-16T05:42:05.419Z,95749.06
2022-12-16T05:44:53.425Z,95752.25
2022-12-16T05:47:44.343Z,95758.81
2022-12-16T05:50:31.079Z,95748.50
2022-12-16T05:53:36.044Z,95755.63
2022-12-16T05:56:23.439Z,95760.16
2022-12-16T05:59:12.397Z,95754.84
2022-12-16T06:02:00.487Z,95749.06
2022-12-16T06:04:47.214Z,95763.22
2022-12-16T06:07:42.827Z,95757.34
2022-12-16T06:10:29.174Z,95763.19
2022-12-16T06:13:15.562Z,95760.59
2022-12-16T06:16:08.184Z,95757.44
2022-12-16T06:18:56.368Z,95766.19
2022-12-16T06:21:42.767Z,95777.53
2022-12-16T06:24:31.865Z,95790.72
2022-12-16T06:27:18.134Z,95796.00
2022-12-16T06:30:07.302Z,95798.41
2022-12-16T06:32:53.824Z,95797.59
2022-12-16T06:35:41.804Z,95803.91
2022-12-16T06:38:28.336Z,95813.97
2022-12-16T06:41:15.249Z,95820.28
2022-12-16T06:44:10.580Z,95826.63
2022-12-16T06:46:57.388Z,95832.66
2022-12-16T06:49:44.107Z,95835.53
2022-12-16T06:52:31.947Z,95837.66
2022-12-16T06:55:21.718Z,95838.97
2022-12-16T06:58:10.056Z,95849.25
2022-12-16T07:00:56.743Z,95857.63
2022-12-16T07:03:46.070Z,95865.09
2022-12-16T07:06:32.351Z,95877.50
2022-12-16T07:09:22.750Z,95874.56
2022-12-16T07:12:09.450Z,95887.66
2022-12-16T07:15:04.507Z,95881.91
2022-12-16T07:17:51.214Z,95893.53
2022-12-16T07:20:37.975Z,95899.94
2022-12-16T07:23:24.279Z,95897.56
2022-12-16T07:26:12.012Z,95898.94
2022-12-16T07:32:36.467Z,95913.69
2022-12-16T07:35:24.363Z,95915.03
2022-12-16T07:38:11.174Z,95914.69
2022-12-16T07:40:59.218Z,95922.63
2022-12-16T07:43:46.845Z,95920.56
2022-12-16T07:46:33.744Z,95935.34
2022-12-16T07:49:23.339Z,95943.84
2022-12-16T07:52:09.743Z,95945.44
2022-12-16T07:54:56.066Z,95945.94
2022-12-16T07:57:42.957Z,95946.78
2022-12-16T08:00:31.312Z,95940.66
2022-12-16T08:03:45.918Z,95944.41
2022-12-16T08:06:37.201Z,95952.84
2022-12-16T08:09:26.866Z,95971.91
2022-12-16T08:12:13.116Z,95969.72
2022-12-16T08:14:59.975Z,95984.41
2022-12-16T08:17:47.847Z,95985.50
2022-12-16T08:20:33.795Z,95976.56
2022-12-16T08:23:20.306Z,95978.63
2022-12-16T08:26:35.230Z,95988.94
2022-12-16T08:32:30.406Z,95992.38
2022-12-16T08:35:18.550Z,95993.63
2022-12-16T08:38:10.356Z,96004.13
2022-12-16T08:41:00.774Z,96001.78
2022-12-16T08:43:50.076Z,96008.09
2022-12-16T08:46:36.744Z,96014.00
2022-12-16T08:49:28.485Z,96020.91
2022-12-16T08:52:16.609Z,96022.69
2022-12-16T08:55:03.051Z,96024.44
2022-12-16T08:58:12.634Z,96027.13
2022-12-16T09:01:04.782Z,96023.53
2022-12-16T09:03:53.826Z,96031.47
2022-12-16T09:06:43.358Z,96033.13
2022-12-16T09:09:31.375Z,96034.25
2022-12-16T09:12:17.861Z,96035.56
2022-12-16T09:15:04.503Z,96040.63
2022-12-16T09:17:54.592Z,96043.25
2022-12-16T09:20:44.376Z,96059.06
2022-12-16T09:23:30.980Z,96057.56
2022-12-16T09:26:19.118Z,96062.31
2022-12-16T09:29:06.117Z,96065.22
2022-12-16T09:31:52.432Z,96071.16
2022-12-16T09:34:53.897Z,96073.25
2022-12-16T09:37:40.793Z,96074.56
2022-12-16T09:40:29.158Z,96089.16
2022-12-16T09:43:20.888Z,96094.16
2022-12-16T09:46:20.146Z,96100.09
2022-12-16T09:49:33.732Z,96110.41
2022-12-16T09:52:24.125Z,96100.44
2022-12-16T09:55:12.170Z,96107.59
2022-12-16T09:57:59.592Z,96105.34
2022-12-16T10:01:13.172Z,96108.66
2022-12-16T10:04:00.627Z,96107.66
2022-12-16T10:06:53.721Z,96114.06
2022-12-16T10:09:59.456Z,96119.34
2022-12-16T10:12:51.719Z,96125.72
2022-12-16T10:15:53.691Z,96121.19
2022-12-16T10:18:55.465Z,96128.72
2022-12-16T10:21:47.380Z,96125.19
2022-12-16T10:24:45.137Z,96123.22
2022-12-16T10:27:38.508Z,96123.81
2022-12-16T10:30:31.037Z,96130.22
2022-12-16T10:33:18.280Z,96129.91
2022-12-16T10:36:08.397Z,96140.88
2022-12-16T10:38:57.330Z,96147.28
2022-12-16T10:41:51.410Z,96144.84
2022-12-16T10:44:44.594Z,96137.50
2022-12-16T10:47:32.001Z,96150.81
2022-12-16T10:50:21.168Z,96155.25
2022-12-16T10:53:15.456Z,96151.19
2022-12-16T10:56:17.098Z,96144.50
2022-12-16T10:59:09.048Z,96148.66
2022-12-16T11:02:06.910Z,96156.94
2022-12-16T11:04:55.918Z,96151.94
2022-12-16T11:07:50.371Z,96149.56
2022-12-16T11:10:58.590Z,96157.03
2022-12-16T11:13:46.830Z,96149.66
2022-12-16T11:16:36.550Z,96151.06
2022-12-16T11:19:28.037Z,96150.94
2022-12-16T11:22:25.245Z,96144.84
2022-12-16T11:25:24.598Z,96148.44
2022-12-16T11:28:23.088Z,96150.41
2022-12-16T11:31:12.376Z,96169.97
2022-12-16T11:33:59.366Z,96171.06
2022-12-16T11:36:45.974Z,96176.78
2022-12-16T11:39:34.820Z,96176.59
2022-12-16T11:42:21.848Z,96163.50
2022-12-16T11:45:14.762Z,96165.69
2022-12-16T11:48:04.791Z,96176.34
2022-12-16T11:50:56.807Z,96175.88
2022-12-16T11:53:49.576Z,96175.78
2022-12-16T11:56:40.237Z,96173.81
2022-12-16T11:59:32.207Z,96175.94
2022-12-16T12:02:27.059Z,96189.75
2022-12-16T12:05:13.824Z,96184.91
2022-12-16T12:08:05.354Z,96187.59
2022-12-16T12:11:03.221Z,96189.19
2022-12-16T12:14:09.012Z,96194.47
2022-12-16T12:17:06.643Z,96182.91
2022-12-16T12:20:00.626Z,96190.41
2022-12-16T12:22:53.251Z,96190.03
2022-12-16T12:25:53.830Z,96192.78
2022-12-16T12:28:48.199Z,96198.56
2022-12-16T12:31:59.784Z,96198.91
2022-12-16T12:34:51.296Z,96194.91
2022-12-16T12:37:44.164Z,96203.94
2022-12-16T12:40:43.362Z,96209.44
2022-12-16T12:43:42.430Z,96206.38
2022-12-16T12:46:34.739Z,96205.75
2022-12-16T12:49:29.195Z,96214.63
2022-12-16T12:52:22.424Z,96221.19
2022-12-16T12:55:14.581Z,96210.81
2022-12-16T12:58:03.357Z,96211.03
2022-12-16T13:00:52.116Z,96210.84
2022-12-16T13:03:49.132Z,96216.13
2022-12-16T13:06:37.076Z,96220.38
2022-12-16T13:09:42.141Z,96233.06
2022-12-16T13:12:53.838Z,96231.22
2022-12-16T13:15:55.080Z,96229.28
2022-12-16T13:18:44.355Z,96231.47
2022-12-16T13:22:04.354Z,96229.09
2022-12-16T13:24:57.916Z,96244.63
2022-12-16T13:27:46.470Z,96243.50
2022-12-16T13:30:51.773Z,96248.31
2022-12-16T13:33:43.296Z,96261.59
2022-12-16T13:36:30.559Z,96270.63
2022-12-16T13:39:46.596Z,96265.72
2022-12-16T13:43:11.753Z,96271.88
2022-12-16T13:49:10.891Z,96291.25
2022-12-16T13:52:31.727Z,96296.63
2022-12-16T13:55:36.641Z,96307.31
2022-12-16T13:58:39.425Z,96303.06
2022-12-16T14:01:52.824Z,96310.13
2022-12-16T14:04:45.347Z,96323.38
2022-12-16T14:07:32.973Z,96323.63
2022-12-16T14:10:20.565Z,96332.69
2022-12-16T14:13:19.852Z,96330.63
2022-12-16T14:16:15.591Z,96335.78
2022-12-16T14:22:32.012Z,96341.06
2022-12-16T14:25:27.835Z,96339.69
2022-12-16T14:28:15.047Z,96341.06
2022-12-16T14:31:01.633Z,96348.69
2022-12-16T14:33:49.713Z,96352.72
2022-12-16T14:36:41.140Z,96366.63
2022-12-16T14:39:31.631Z,96367.44
2022-12-16T14:42:18.354Z,96365.19
2022-12-16T14:45:05.358Z,96369.75
2022-12-16T14:47:51.968Z,96371.41
2022-12-16T14:50:45.022Z,96378.28
2022-12-16T14:53:38.118Z,96382.44
2022-12-16T14:56:38.102Z,96385.88
2022-12-16T14:59:30.550Z,96392.19
2022-12-16T15:02:19.849Z,96399.81
2022-12-16T15:05:09.688Z,96409.97
2022-12-16T15:07:57.994Z,96408.53
2022-12-16T15:10:46.472Z,96406.00
2022-12-16T15:13:36.764Z,96412.03
2022-12-16T15:16:25.438Z,96414.53
2022-12-16T15:19:17.222Z,96415.72
2022-12-16T15:28:42.020Z,96428.28
2022-12-16T15:31:33.424Z,96433.47
2022-12-16T15:34:42.642Z,96439.06
2022-12-16T15:37:38.506Z,96438.41
2022-12-16T15:40:38.527Z,96450.66
2022-12-16T15:43:24.884Z,96449.94
2022-12-16T15:46:14.365Z,96448.97
2022-12-16T15:49:01.415Z,96455.06
2022-12-16T15:51:49.561Z,96462.66
2022-12-16T15:54:40.694Z,96457.78
2022-12-16T15:57:44.279Z,96460.69
2022-12-16T16:00:42.257Z,96472.97
2022-12-16T16:03:40.989Z,96492.16
2022-12-16T16:06:34.518Z,96496.44
2022-12-16T16:09:21.733Z,96496.06
2022-12-16T16:12:08.044Z,96496.59
2022-12-16T16:14:59.109Z,96506.03
2022-12-16T16:17:45.550Z,96505.44
2022-12-16T16:20:33.799Z,96506.97
2022-12-16T16:23:20.394Z,96500.75
2022-12-16T16:26:07.317Z,96503.47
2022-12-16T16:28:54.542Z,96513.25
2022-12-16T16:31:42.796Z,96514.06
2022-12-16T16:34:29.493Z,96518.63
2022-12-16T16:37:28.395Z,96516.91
2022-12-16T16:40:27.078Z,96511.66
2022-12-16T16:43:13.959Z,96507.72
2022-12-16T16:46:03.636Z,96523.34
2022-12-16T16:48:49.562Z,96522.50
2022-12-16T16:51:38.626Z,96525.78
2022-12-16T16:54:32.008Z,96528.13
2022-12-16T16:57:19.811Z,96540.53
2022-12-16T17:00:06.529Z,96536.72
2022-12-16T17:02:53.595Z,96544.59
2022-12-16T17:05:44.566Z,96553.31
2022-12-16T17:08:34.857Z,96554.72
2022-12-16T17:11:39.903Z,96557.44
2022-12-16T17:14:34.803Z,96557.84
2022-12-16T17:17:21.820Z,96564.72
2022-12-16T17:20:08.416Z,96569.88
2022-12-16T17:22:56.259Z,96570.16
2022-12-16T17:25:43.079Z,96569.56
2022-12-16T17:28:30.910Z,96582.59
2022-12-16T17:31:18.342Z,96579.50
2022-12-16T17:34:05.083Z,96597.53
2022-12-16T17:36:51.650Z,96597.31
2022-12-16T17:39:49.933Z,96601.97
2022-12-16T17:42:44.715Z,96613.25
2022-12-16T17:45:36.255Z,96613.84
2022-12-16T17:48:45.323Z,96623.13
2022-12-16T17:51:32.003Z,96617.66
2022-12-16T17:54:23.680Z,96624.53
2022-12-16T17:57:14.375Z,96627.72
2022-12-16T18:00:01.330Z,96625.84
2022-12-16T18:03:20.933Z,96625.53
2022-12-16T18:06:24.944Z,96623.34
2022-12-16T18:09:11.751Z,96628.28
2022-12-16T18:12:01.736Z,96635.47
2022-12-16T18:15:01.963Z,96638.22
2022-12-16T18:17:49.185Z,96643.09
2022-12-16T18:20:35.752Z,96634.72
2022-12-16T18:23:22.303Z,96639.19
2022-12-16T18:26:16.994Z,96642.00
2022-12-16T18:29:03.598Z,96640.63
2022-12-16T18:31:52.436Z,96643.13
2022-12-16T18:34:39.476Z,96652.66
2022-12-16T18:37:26.186Z,96659.84
2022-12-16T18:40:12.349Z,96666.78
2022-12-16T18:43:06.674Z,96666.47
2022-12-16T18:45:53.839Z,96667.34
2022-12-16T18:48:42.035Z,96673.75
2022-12-16T18:51:28.746Z,96681.09
2022-12-16T18:54:15.455Z,96684.13
2022-12-16T18:57:06.341Z,96692.94
2022-12-16T18:59:56.490Z,96693.19
2022-12-16T19:02:55.501Z,96709.09
2022-12-16T19:05:43.562Z,96705.31
2022-12-16T19:08:30.906Z,96704.56
2022-12-16T19:11:17.624Z,96708.44
2022-12-16T19:14:08.330Z,96711.59
2022-12-16T19:16:55.303Z,96713.69
2022-12-16T19:19:47.586Z,96709.88
2022-12-16T19:22:36.099Z,96728.47
2022-12-16T19:25:26.153Z,96714.94
2022-12-16T19:28:14.690Z,96728.34
2022-12-16T19:31:31.118Z,96731.81
2022-12-16T19:34:22.299Z,96738.56
2022-12-16T19:37:11.361Z,96738.66
2022-12-16T19:39:59.101Z,96738.31
2022-12-16T19:42:55.878Z,96741.78
2022-12-16T19:45:48.920Z,96750.94
2022-12-16T19:48:41.555Z,96760.56
2022-12-16T19:51:28.540Z,96764.38
2022-12-16T19:54:14.816Z,96753.00
2022-12-16T19:57:02.759Z,96756.22
2022-12-16T19:59:49.174Z,96763.66
2022-12-16T20:02:36.156Z,96760.56
2022-12-16T20:05:23.140Z,96763.44
2022-12-16T20:08:10.260Z,96767.09
2022-12-16T20:10:59.693Z,96771.56
2022-12-16T20:13:47.670Z,96772.16
2022-12-16T20:16:39.103Z,96780.88
2022-12-16T20:19:44.134Z,96784.09
2022-12-16T20:22:42.521Z,96797.63
2022-12-16T20:25:28.917Z,96801.53
2022-12-16T20:28:21.747Z,96810.47
2022-12-16T20:31:12.735Z,96812.31
2022-12-16T20:34:05.229Z,96820.56
2022-12-16T20:36:52.340Z,96830.53
2022-12-16T20:39:39.157Z,96837.06
2022-12-16T20:42:27.094Z,96842.34
2022-12-16T20:45:14.618Z,96843.03
2022-12-16T20:48:03.070Z,96844.53
2022-12-16T20:50:51.769Z,96848.41
2022-12-16T20:53:41.096Z,96845.22
2022-12-16T20:56:29.514Z,96851.41
2022-12-16T20:59:16.979Z,96856.56
2022-12-16T21:05:14.867Z,96871.44
2022-12-16T21:08:14.790Z,96867.91
2022-12-16T21:11:01.252Z,96878.81
2022-12-16T21:13:48.175Z,96880.88
2022-12-16T21:16:35.734Z,96888.69
2022-12-16T21:19:39.291Z,96894.56
2022-12-16T21:22:28.302Z,96902.06
2022-12-16T21:28:38.496Z,96908.84
2022-12-16T21:31:25.397Z,96914.41
2022-12-16T21:34:12.518Z,96923.28
2022-12-16T21:37:00.061Z,96925.75
2022-12-16T21:39:48.700Z,96920.22
2022-12-16T21:42:38.621Z,96926.75
2022-12-16T21:45:37.275Z,96923.97
2022-12-16T21:51:38.709Z,96934.59
2022-12-16T21:54:36.524Z,96951.28
2022-12-16T21:57:31.626Z,96946.50
2022-12-16T22:00:31.140Z,96958.06
2022-12-16T22:03:21.025Z,96958.75
2022-12-16T22:06:07.836Z,96960.72
2022-12-16T22:08:54.544Z,96967.78
2022-12-16T22:11:48.643Z,96972.63
2022-12-16T22:14:38.965Z,96976.00
2022-12-16T22:17:37.151Z,96977.63
2022-12-16T22:20:33.949Z,96978.16
2022-12-16T22:26:34.390Z,96980.75
2022-12-16T22:29:23.565Z,96987.78
2022-12-16T22:32:12.219Z,96992.72
2022-12-16T22:34:58.930Z,97001.78
2022-12-16T22:37:54.549Z,97010.41
2022-12-16T22:40:57.117Z,97004.00
2022-12-16T22:43:48.767Z,97004.97
2022-12-16T22:46:35.638Z,97005.56
2022-12-16T22:49:26.268Z,97010.84
2022-12-16T22:52:13.700Z,97013.75
2022-12-16T22:55:11.482Z,97007.25
2022-12-16T22:58:01.427Z,97012.00
2022-12-16T23:00:52.032Z,97013.06
2022-12-16T23:03:56.388Z,97017.38
2022-12-16T23:07:07.455Z,97021.47
2022-12-16T23:10:16.285Z,97034.16
2022-12-16T23:13:03.305Z,97030.47
2022-12-16T23:15:59.387Z,97034.09
2022-12-16T23:22:44.436Z,97035.16
2022-12-16T23:25:31.654Z,97050.25
2022-12-16T23:28:21.951Z,97037.81
2022-12-16T23:31:20.911Z,97047.97
2022-12-16T23:34:14.721Z,97049.78
2022-12-16T23:37:00.917Z,97054.03
2022-12-16T23:39:51.010Z,97050.59
2022-12-16T23:42:48.365Z,97060.50
2022-12-16T23:45:57.862Z,97058.81
2022-12-16T23:48:42.882Z,97065.78
2022-12-16T23:51:43.005Z,97064.91
2022-12-16T23:54:31.217Z,97065.25
2022-12-16T23:57:26.456Z,97059.19
